createdAt,value
2019-02-25T00:00:56.430Z,40.05
2019-02-25T00:03:44.281Z,40.90
2019-02-25T00:06:32.114Z,40.72
2019-02-25T00:09:19.972Z,40.56
2019-02-25T00:12:07.787Z,41.13
2019-02-25T00:14:56.119Z,41.35
2019-02-25T00:17:43.912Z,41.12
2019-02-25T00:20:31.770Z,41.08
2019-02-25T00:23:19.667Z,41.39
2019-02-25T00:26:07.670Z,41.23
2019-02-25T00:28:55.602Z,41.91
2019-02-25T00:31:43.783Z,41.03
2019-02-25T00:34:31.788Z,40.96
2019-02-25T00:37:19.694Z,42.19
2019-02-25T00:40:07.772Z,42.23
2019-02-25T00:42:55.554Z,41.02
2019-02-25T00:45:43.530Z,42.38
2019-02-25T00:48:31.205Z,42.12
2019-02-25T00:51:19.392Z,41.76
2019-02-25T00:54:07.046Z,41.41
2019-02-25T00:56:55.459Z,41.48
2019-02-25T00:59:43.568Z,41.17
2019-02-25T01:02:31.723Z,41.90
2019-02-25T01:05:20.082Z,42.52
2019-02-25T01:08:08.057Z,42.67
2019-02-25T01:10:56.387Z,41.69
2019-02-25T01:13:44.536Z,41.54
2019-02-25T01:16:32.542Z,42.03
2019-02-25T01:19:20.492Z,41.81
2019-02-25T01:22:08.436Z,41.54
2019-02-25T01:24:56.456Z,42.04
2019-02-25T01:27:44.301Z,42.30
2019-02-25T01:30:32.519Z,41.90
2019-02-25T01:33:20.415Z,42.05
2019-02-25T01:36:08.456Z,41.74
2019-02-25T01:38:56.696Z,41.59
2019-02-25T01:41:44.782Z,41.82
2019-02-25T01:44:32.877Z,42.22
2019-02-25T01:47:21.344Z,41.84
2019-02-25T01:50:47.282Z,41.59
2019-02-25T01:53:38.448Z,42.06
2019-02-25T01:56:26.790Z,41.89
2019-02-25T01:59:14.655Z,41.69
2019-02-25T02:02:02.684Z,41.40
2019-02-25T02:04:50.502Z,41.94
2019-02-25T02:07:38.387Z,41.79
2019-02-25T02:10:26.165Z,41.87
2019-02-25T02:13:14.654Z,42.25
2019-02-25T02:16:02.614Z,41.98
2019-02-25T02:18:50.668Z,41.62
2019-02-25T02:21:38.374Z,41.45
2019-02-25T02:24:26.218Z,41.06
2019-02-25T02:27:14.478Z,41.59
2019-02-25T02:30:02.232Z,42.39
2019-02-25T02:32:50.095Z,43.34
2019-02-25T02:35:37.732Z,43.81
2019-02-25T02:38:25.966Z,43.09
2019-02-25T02:41:13.939Z,42.46
2019-02-25T02:44:02.039Z,42.47
2019-02-25T02:47:14.095Z,41.48
2019-02-25T02:50:02.047Z,41.33
2019-02-25T02:52:49.909Z,42.08
2019-02-25T02:55:38.206Z,41.92
2019-02-25T02:58:26.208Z,42.34
2019-02-25T03:01:14.486Z,42.87
2019-02-25T03:04:02.582Z,42.65
2019-02-25T03:06:50.481Z,42.53
2019-02-25T03:09:39.014Z,42.04
2019-02-25T03:12:26.563Z,42.56
2019-02-25T03:15:16.355Z,42.05
2019-02-25T03:18:04.140Z,42.69
2019-02-25T03:20:52.179Z,42.07
2019-02-25T03:23:39.857Z,41.78
2019-02-25T03:26:27.968Z,42.87
2019-02-25T03:29:16.182Z,42.88
2019-02-25T03:32:04.261Z,42.65
2019-02-25T03:34:52.528Z,42.54
2019-02-25T03:37:40.655Z,42.86
2019-02-25T03:40:28.514Z,43.01
2019-02-25T03:43:16.763Z,43.26
2019-02-25T03:46:05.007Z,43.60
2019-02-25T03:48:52.974Z,43.41
2019-02-25T03:51:40.483Z,43.51
2019-02-25T03:54:28.345Z,43.58
2019-02-25T03:57:16.260Z,43.05
2019-02-25T04:00:04.318Z,42.91
2019-02-25T04:02:52.373Z,43.28
2019-02-25T04:05:40.383Z,43.88
2019-02-25T04:08:28.676Z,43.47
2019-02-25T04:11:16.594Z,44.33
2019-02-25T04:14:04.890Z,44.04
2019-02-25T04:16:52.730Z,44.07
2019-02-25T04:19:40.951Z,44.25
2019-02-25T04:22:28.696Z,44.38
2019-02-25T04:25:16.278Z,44.49
2019-02-25T04:28:04.308Z,44.28
2019-02-25T04:30:52.245Z,43.97
2019-02-25T04:33:40.077Z,44.24
2019-02-25T04:36:27.594Z,44.39
2019-02-25T04:39:15.199Z,44.33
2019-02-25T04:42:02.978Z,44.49
2019-02-25T04:44:51.365Z,44.18
2019-02-25T04:47:38.914Z,44.50
2019-02-25T04:50:27.269Z,44.54
2019-02-25T04:53:15.731Z,44.20
2019-02-25T04:56:03.599Z,43.97
2019-02-25T04:58:51.809Z,44.11
2019-02-25T05:01:39.796Z,44.87
2019-02-25T05:04:28.025Z,45.08
2019-02-25T05:07:16.017Z,44.45
2019-02-25T05:10:04.332Z,43.61
2019-02-25T05:13:00.216Z,43.72
2019-02-25T05:15:48.286Z,44.64
2019-02-25T05:18:36.255Z,44.24
2019-02-25T05:21:24.744Z,44.65
2019-02-25T05:24:12.432Z,43.73
2019-02-25T05:27:00.640Z,43.97
2019-02-25T05:29:48.491Z,44.44
2019-02-25T05:32:36.433Z,44.47
2019-02-25T05:35:24.069Z,44.60
2019-02-25T05:38:12.215Z,45.20
2019-02-25T05:41:00.161Z,44.96
2019-02-25T05:43:48.227Z,45.76
2019-02-25T05:46:36.262Z,45.19
2019-02-25T05:49:24.353Z,45.39
2019-02-25T05:52:12.608Z,45.77
2019-02-25T05:55:00.954Z,46.42
2019-02-25T05:57:49.083Z,45.94
2019-02-25T06:00:36.982Z,45.44
2019-02-25T06:03:25.207Z,45.42
2019-02-25T06:06:13.190Z,45.78
2019-02-25T06:09:01.079Z,45.65
2019-02-25T06:11:49.118Z,46.11
2019-02-25T06:14:37.025Z,44.69
2019-02-25T06:17:24.959Z,44.80
2019-02-25T06:20:13.441Z,45.68
2019-02-25T06:23:01.311Z,45.22
2019-02-25T06:25:49.448Z,44.98
2019-02-25T06:28:37.354Z,44.84
2019-02-25T06:31:24.880Z,44.86
2019-02-25T06:34:13.081Z,45.29
2019-02-25T06:37:01.242Z,45.49
2019-02-25T06:39:49.081Z,45.69
2019-02-25T06:42:37.385Z,45.46
2019-02-25T06:45:25.513Z,45.84
2019-02-25T06:48:13.818Z,46.05
2019-02-25T06:51:01.721Z,45.42
2019-02-25T06:53:49.892Z,44.01
2019-02-25T06:56:37.635Z,42.50
2019-02-25T06:59:25.491Z,41.23
2019-02-25T07:02:13.396Z,39.85
2019-02-25T07:05:26.539Z,38.67
2019-02-25T07:08:29.559Z,39.21
2019-02-25T07:11:23.858Z,40.24
2019-02-25T07:14:37.001Z,40.96
2019-02-25T07:17:44.151Z,40.94
2019-02-25T07:20:50.077Z,42.07
2019-02-25T07:24:06.203Z,42.29
2019-02-25T07:27:12.832Z,41.94
2019-02-25T07:30:13.180Z,40.98
2019-02-25T07:33:14.100Z,38.11
2019-02-25T07:36:36.398Z,36.29
2019-02-25T07:39:55.445Z,34.90
2019-02-25T07:42:55.718Z,34.24
2019-02-25T07:46:17.953Z,33.78
2019-02-25T07:49:28.059Z,33.10
2019-02-25T07:52:33.811Z,32.62
2019-02-25T07:55:27.005Z,32.28
2019-02-25T07:58:36.965Z,32.50
2019-02-25T08:01:42.606Z,32.33
2019-02-25T08:04:49.573Z,32.06
2019-02-25T08:08:05.986Z,32.58
2019-02-25T08:11:27.948Z,32.87
2019-02-25T08:14:22.786Z,32.87
2019-02-25T08:17:42.250Z,32.55
2019-02-25T08:20:39.986Z,32.26
2019-02-25T08:23:46.274Z,32.93
2019-02-25T08:26:48.943Z,33.36
2019-02-25T08:29:53.791Z,33.20
2019-02-25T08:33:09.865Z,33.59
2019-02-25T08:37:12.664Z,33.43
2019-02-25T08:40:50.042Z,33.56
2019-02-25T08:43:57.034Z,34.70
2019-02-25T08:46:56.450Z,34.61
2019-02-25T08:49:56.732Z,35.11
2019-02-25T08:52:44.941Z,34.70
2019-02-25T08:55:32.957Z,34.73
2019-02-25T08:58:21.186Z,35.53
2019-02-25T09:01:10.195Z,35.62
2019-02-25T09:03:57.949Z,35.40
2019-02-25T09:06:45.851Z,35.14
2019-02-25T09:09:34.209Z,36.24
2019-02-25T09:12:22.163Z,36.39
2019-02-25T09:15:11.253Z,36.55
2019-02-25T09:17:57.763Z,36.21
2019-02-25T09:20:45.689Z,36.43
2019-02-25T09:23:33.786Z,36.68
2019-02-25T09:26:21.832Z,37.42
2019-02-25T09:29:09.790Z,38.25
2019-02-25T09:31:57.749Z,38.71
2019-02-25T09:34:47.084Z,38.77
2019-02-25T09:37:37.225Z,38.61
2019-02-25T09:40:24.656Z,38.95
2019-02-25T09:43:12.884Z,38.20
2019-02-25T09:46:00.673Z,38.38
2019-02-25T09:48:48.400Z,38.33
2019-02-25T09:51:36.237Z,38.14
2019-02-25T09:54:24.439Z,38.88
2019-02-25T09:57:12.626Z,38.25
2019-02-25T10:00:00.858Z,38.27
2019-02-25T10:02:48.827Z,38.13
2019-02-25T10:05:37.618Z,38.07
2019-02-25T10:08:25.501Z,38.15
2019-02-25T10:11:13.680Z,38.08
2019-02-25T10:14:01.884Z,38.37
2019-02-25T10:16:50.196Z,38.28
2019-02-25T10:19:38.263Z,37.63
2019-02-25T10:22:26.612Z,37.07
2019-02-25T10:25:14.645Z,37.19
2019-02-25T10:28:02.931Z,37.17
2019-02-25T10:30:53.072Z,37.10
2019-02-25T10:33:40.996Z,36.75
2019-02-25T10:36:29.295Z,37.02
2019-02-25T10:39:17.913Z,36.64
2019-02-25T10:42:06.386Z,36.51
2019-02-25T10:44:54.238Z,37.04
2019-02-25T10:47:43.859Z,35.99
2019-02-25T10:50:33.463Z,36.30
2019-02-25T10:53:22.115Z,36.38
2019-02-25T10:56:39.231Z,36.40
2019-02-25T10:59:29.753Z,35.94
2019-02-25T11:02:17.951Z,35.77
2019-02-25T11:05:07.081Z,35.99
2019-02-25T11:07:55.282Z,35.96
2019-02-25T11:10:48.673Z,35.54
2019-02-25T11:13:37.255Z,35.71
2019-02-25T11:16:24.912Z,35.64
2019-02-25T11:19:13.087Z,34.85
2019-02-25T11:22:00.645Z,34.84
2019-02-25T11:24:49.848Z,34.94
2019-02-25T11:27:40.035Z,34.80
2019-02-25T11:30:28.251Z,34.86
2019-02-25T11:33:16.718Z,34.93
2019-02-25T11:36:04.379Z,35.17
2019-02-25T11:38:52.472Z,35.45
2019-02-25T11:41:41.089Z,35.55
2019-02-25T11:44:31.285Z,35.79
2019-02-25T11:47:19.304Z,35.97
2019-02-25T11:50:09.270Z,35.78
2019-02-25T11:52:56.824Z,36.03
2019-02-25T11:55:44.804Z,35.63
2019-02-25T11:58:32.717Z,35.85
2019-02-25T12:01:20.619Z,35.60
2019-02-25T12:04:08.722Z,35.44
2019-02-25T12:06:56.861Z,35.67
2019-02-25T12:09:44.883Z,35.94
2019-02-25T12:12:32.826Z,36.06
2019-02-25T12:15:21.116Z,36.11
2019-02-25T12:18:09.024Z,36.20
2019-02-25T12:20:57.202Z,35.99
2019-02-25T12:23:45.598Z,36.33
2019-02-25T12:26:33.816Z,35.91
2019-02-25T12:29:22.026Z,35.62
2019-02-25T12:32:09.909Z,35.34
2019-02-25T12:34:57.901Z,35.52
2019-02-25T12:37:45.763Z,35.43
2019-02-25T12:40:33.796Z,35.42
2019-02-25T12:43:21.761Z,35.37
2019-02-25T12:46:09.756Z,35.44
2019-02-25T12:48:57.390Z,34.95
2019-02-25T12:51:45.250Z,34.81
2019-02-25T12:54:33.624Z,35.11
2019-02-25T12:57:21.638Z,34.85
2019-02-25T13:00:12.203Z,34.68
2019-02-25T13:03:00.513Z,34.29
2019-02-25T13:05:48.446Z,34.13
2019-02-25T13:08:36.263Z,34.40
2019-02-25T13:11:24.692Z,34.28
2019-02-25T13:14:13.849Z,34.33
2019-02-25T13:17:01.971Z,34.56
2019-02-25T13:19:49.774Z,34.62
2019-02-25T13:22:38.155Z,34.51
2019-02-25T13:25:26.010Z,34.35
2019-02-25T13:28:14.179Z,34.08
2019-02-25T13:31:03.252Z,34.17
2019-02-25T13:33:52.304Z,34.16
2019-02-25T13:36:40.445Z,34.43
2019-02-25T13:39:27.934Z,34.17
2019-02-25T13:42:15.504Z,33.97
2019-02-25T13:45:03.371Z,33.59
2019-02-25T13:47:51.578Z,33.98
2019-02-25T13:50:39.895Z,34.09
2019-02-25T13:53:28.069Z,33.94
2019-02-25T13:56:16.113Z,33.61
2019-02-25T13:59:04.405Z,33.67
2019-02-25T14:01:52.644Z,33.95
2019-02-25T14:04:40.776Z,33.54
2019-02-25T14:07:28.375Z,33.92
2019-02-25T14:10:16.530Z,34.00
2019-02-25T14:13:04.404Z,33.87
2019-02-25T14:15:52.906Z,34.01
2019-02-25T14:18:41.057Z,34.00
2019-02-25T14:21:31.573Z,34.12
2019-02-25T14:24:20.792Z,33.74
2019-02-25T14:27:08.558Z,33.82
2019-02-25T14:29:56.931Z,33.71
2019-02-25T14:32:45.278Z,33.65
2019-02-25T14:35:33.374Z,33.76
2019-02-25T14:38:23.208Z,33.91
2019-02-25T14:41:11.681Z,34.21
2019-02-25T14:44:00.310Z,34.01
2019-02-25T14:46:47.966Z,33.91
2019-02-25T14:49:37.770Z,33.85
2019-02-25T14:52:26.842Z,33.99
2019-02-25T14:55:15.878Z,34.34
2019-02-25T14:58:06.865Z,34.15
2019-02-25T15:00:53.814Z,34.36
2019-02-25T15:03:41.899Z,34.33
2019-02-25T15:06:30.430Z,34.16
2019-02-25T15:09:19.254Z,34.40
2019-02-25T15:12:09.210Z,34.26
2019-02-25T15:14:58.045Z,34.75
2019-02-25T15:17:48.064Z,34.49
2019-02-25T15:20:36.002Z,34.47
2019-02-25T15:23:25.959Z,34.84
2019-02-25T15:26:15.102Z,35.19
2019-02-25T15:29:03.244Z,34.98
2019-02-25T15:31:52.601Z,35.45
2019-02-25T15:34:41.373Z,35.32
2019-02-25T15:37:29.585Z,35.51
2019-02-25T15:40:18.576Z,35.27
2019-02-25T15:43:13.166Z,35.42
2019-02-25T15:46:02.247Z,35.35
2019-02-25T15:48:50.629Z,35.65
2019-02-25T15:51:39.101Z,35.79
2019-02-25T15:54:30.888Z,35.64
2019-02-25T15:57:17.865Z,35.88
2019-02-25T16:00:08.796Z,36.16
2019-02-25T16:02:57.310Z,35.67
2019-02-25T16:05:45.541Z,35.84
2019-02-25T16:08:33.504Z,36.83
2019-02-25T16:11:25.643Z,36.58
2019-02-25T16:14:11.957Z,35.87
2019-02-25T16:17:00.036Z,36.42
2019-02-25T16:19:50.659Z,36.32
2019-02-25T16:22:39.085Z,36.70
2019-02-25T16:25:28.140Z,36.66
2019-02-25T16:28:17.563Z,36.55
2019-02-25T16:31:06.079Z,36.73
2019-02-25T16:33:55.495Z,36.70
2019-02-25T16:36:48.996Z,37.21
2019-02-25T16:39:34.150Z,37.68
2019-02-25T16:42:25.965Z,37.63
2019-02-25T16:45:14.229Z,38.18
2019-02-25T16:48:02.317Z,38.21
2019-02-25T16:50:50.227Z,37.91
2019-02-25T16:53:39.026Z,38.05
2019-02-25T16:56:27.781Z,38.60
2019-02-25T16:59:17.944Z,39.00
2019-02-25T17:02:07.112Z,39.10
2019-02-25T17:04:54.905Z,39.12
2019-02-25T17:07:46.519Z,39.32
2019-02-25T17:10:35.048Z,39.58
2019-02-25T17:13:23.378Z,39.87
2019-02-25T17:16:18.165Z,40.07
2019-02-25T17:19:01.267Z,40.24
2019-02-25T17:21:49.346Z,40.19
2019-02-25T17:24:39.227Z,40.19
2019-02-25T17:27:28.159Z,40.39
2019-02-25T17:30:20.174Z,40.59
2019-02-25T17:33:12.119Z,40.83
2019-02-25T17:35:59.620Z,40.99
2019-02-25T17:38:49.661Z,41.22
2019-02-25T17:41:37.780Z,41.58
2019-02-25T17:44:28.353Z,41.92
2019-02-25T17:47:24.028Z,42.03
2019-02-25T17:50:09.451Z,42.08
2019-02-25T17:52:58.645Z,41.58
2019-02-25T17:55:48.911Z,41.72
2019-02-25T17:58:38.245Z,41.86
2019-02-25T18:01:27.984Z,41.69
2019-02-25T18:04:16.283Z,41.02
2019-02-25T18:07:04.194Z,41.43
2019-02-25T18:09:52.163Z,41.90
2019-02-25T18:12:41.531Z,42.04
2019-02-25T18:15:30.631Z,42.01
2019-02-25T18:18:20.270Z,41.96
2019-02-25T18:21:09.044Z,42.14
2019-02-25T18:23:57.060Z,42.45
2019-02-25T18:26:47.036Z,42.58
2019-02-25T18:29:34.752Z,42.97
2019-02-25T18:32:22.770Z,43.40
2019-02-25T18:35:12.239Z,43.19
2019-02-25T18:38:02.488Z,43.29
2019-02-25T18:40:50.317Z,43.33
2019-02-25T18:43:38.487Z,43.55
2019-02-25T18:46:27.706Z,43.72
2019-02-25T18:49:16.559Z,43.97
2019-02-25T18:52:04.421Z,44.28
2019-02-25T18:54:52.551Z,44.13
2019-02-25T18:57:41.724Z,44.45
2019-02-25T19:00:34.302Z,44.46
2019-02-25T19:03:22.371Z,44.69
2019-02-25T19:06:10.359Z,44.84
2019-02-25T19:09:01.264Z,45.36
2019-02-25T19:11:51.076Z,45.30
2019-02-25T19:14:38.681Z,45.58
2019-02-25T19:17:27.281Z,45.42
2019-02-25T19:20:17.251Z,45.61
2019-02-25T19:23:09.353Z,45.20
2019-02-25T19:25:54.856Z,45.78
2019-02-25T19:28:45.976Z,45.38
2019-02-25T19:31:32.645Z,45.42
2019-02-25T19:34:20.716Z,45.51
2019-02-25T19:37:09.669Z,45.65
2019-02-25T19:39:58.300Z,46.11
2019-02-25T19:42:49.261Z,46.09
2019-02-25T19:45:36.391Z,46.28
2019-02-25T19:48:28.680Z,46.98
2019-02-25T19:51:14.852Z,47.18
2019-02-25T19:54:06.728Z,47.62
2019-02-25T19:56:53.752Z,48.11
2019-02-25T19:59:43.397Z,48.03
2019-02-25T20:02:32.180Z,48.08
2019-02-25T20:05:23.902Z,48.07
2019-02-25T20:08:11.411Z,47.46
2019-02-25T20:10:59.494Z,46.84
2019-02-25T20:13:47.738Z,47.17
2019-02-25T20:16:35.715Z,48.12
2019-02-25T20:19:23.350Z,48.20
2019-02-25T20:22:12.113Z,48.57
2019-02-25T20:25:01.355Z,48.90
2019-02-25T20:27:50.831Z,48.99
2019-02-25T20:30:39.275Z,48.83
2019-02-25T20:33:31.756Z,48.75
2019-02-25T20:36:19.234Z,48.42
2019-02-25T20:39:07.001Z,48.40
2019-02-25T20:41:57.026Z,48.38
2019-02-25T20:44:46.699Z,48.32
2019-02-25T20:47:34.214Z,48.59
2019-02-25T20:50:22.316Z,48.50
2019-02-25T20:53:11.075Z,48.82
2019-02-25T20:55:59.247Z,49.21
2019-02-25T20:58:47.438Z,48.83
2019-02-25T21:01:37.456Z,49.05
2019-02-25T21:04:24.508Z,49.60
2019-02-25T21:07:13.256Z,49.11
2019-02-25T21:10:03.527Z,48.64
2019-02-25T21:12:52.998Z,48.58
2019-02-25T21:15:42.839Z,48.55
2019-02-25T21:18:31.040Z,48.84
2019-02-25T21:21:19.129Z,48.33
2019-02-25T21:24:08.909Z,49.14
2019-02-25T21:26:59.618Z,48.41
2019-02-25T21:29:48.239Z,49.21
2019-02-25T21:32:36.009Z,48.96
2019-02-25T21:35:27.578Z,50.05
2019-02-25T21:38:13.206Z,50.52
2019-02-25T21:41:01.326Z,51.00
2019-02-25T21:43:51.628Z,51.49
2019-02-25T21:46:39.151Z,51.27
2019-02-25T21:49:29.220Z,50.99
2019-02-25T21:52:17.602Z,51.16
2019-02-25T21:55:07.563Z,51.11
2019-02-25T21:57:57.380Z,51.11
2019-02-25T22:00:45.509Z,51.70
2019-02-25T22:03:37.126Z,51.74
2019-02-25T22:06:24.923Z,51.62
2019-02-25T22:09:12.348Z,51.55
2019-02-25T22:12:00.794Z,51.64
2019-02-25T22:14:49.914Z,51.22
2019-02-25T22:17:40.497Z,51.79
2019-02-25T22:20:28.310Z,51.82
2019-02-25T22:23:16.515Z,51.85
2019-02-25T22:26:04.413Z,51.53
2019-02-25T22:28:53.299Z,51.72
2019-02-25T22:31:44.101Z,51.18
2019-02-25T22:34:31.450Z,51.15
2019-02-25T22:37:21.837Z,51.69
2019-02-25T22:40:10.633Z,51.56
2019-02-25T22:42:59.614Z,51.40
2019-02-25T22:45:47.798Z,50.87
2019-02-25T22:48:37.571Z,50.93
2019-02-25T22:51:28.166Z,51.64
2019-02-25T22:54:17.101Z,51.57
2019-02-25T22:57:05.414Z,51.48
2019-02-25T22:59:53.294Z,51.23
2019-02-25T23:02:43.469Z,52.16
2019-02-25T23:05:31.362Z,52.61
2019-02-25T23:08:20.909Z,52.38
2019-02-25T23:11:10.317Z,52.54
2019-02-25T23:13:59.052Z,52.73
2019-02-25T23:16:47.929Z,52.72
2019-02-25T23:19:37.097Z,53.45
2019-02-25T23:22:25.192Z,53.50
2019-02-25T23:25:13.159Z,53.76
2019-02-25T23:28:02.297Z,53.37
2019-02-25T23:30:50.344Z,53.69
2019-02-25T23:33:40.460Z,53.50
2019-02-25T23:36:27.822Z,53.88
2019-02-25T23:39:17.665Z,53.27
2019-02-25T23:42:07.323Z,54.01
2019-02-25T23:44:55.505Z,53.49
2019-02-25T23:47:43.300Z,53.63
2019-02-25T23:50:31.879Z,53.41
2019-02-25T23:53:20.731Z,53.68
2019-02-25T23:56:08.944Z,53.25
2019-02-25T23:58:56.868Z,53.71
